sensor_id;sensor_type;location;lat;lon;timestamp;P1;durP1;ratioP1;P2;durP2;ratioP2
48881;SDS011;57063;51.406;-2.402;2023-02-28T00:00:05;8.43;;;2.33;;
48881;SDS011;57063;51.406;-2.402;2023-02-28T00:02:53;11.95;;;2.67;;
48881;SDS011;57063;51.406;-2.402;2023-02-28T00:54:06;7.22;;;2.53;;
48881;SDS011;57063;51.406;-2.402;2023-02-28T00:56:35;7.45;;;1.90;;
48881;SDS011;57063;51.406;-2.402;2023-02-28T00:59:13;14.25;;;2.50;;
48881;SDS011;57063;51.406;-2.402;2023-02-28T01:01:45;5.20;;;2.15;;
48881;SDS011;57063;51.406;-2.402;2023-02-28T01:04:16;12.45;;;3.75;;
48881;SDS011;57063;51.406;-2.402;2023-02-28T01:06:50;9.65;;;2.28;;
48881;SDS011;57063;51.406;-2.402;2023-02-28T01:09:21;5.18;;;2.05;;
48881;SDS011;57063;51.406;-2.402;2023-02-28T01:12:00;6.35;;;2.53;;
48881;SDS011;57063;51.406;-2.402;2023-02-28T01:14:33;7.38;;;2.00;;
48881;SDS011;57063;51.406;-2.402;2023-02-28T01:17:28;9.65;;;2.60;;
48881;SDS011;57063;51.406;-2.402;2023-02-28T01:25:51;8.68;;;2.45;;
48881;SDS011;57063;51.406;-2.402;2023-02-28T01:28:20;10.57;;;3.83;;
48881;SDS011;57063;51.406;-2.402;2023-02-28T01:31:07;9.50;;;4.05;;
48881;SDS011;57063;51.406;-2.402;2023-02-28T01:33:45;6.97;;;2.17;;
48881;SDS011;57063;51.406;-2.402;2023-02-28T01:36:28;6.97;;;1.83;;
48881;SDS011;57063;51.406;-2.402;2023-02-28T01:39:06;11.13;;;2.60;;
48881;SDS011;57063;51.406;-2.402;2023-02-28T01:41:40;6.40;;;2.40;;
48881;SDS011;57063;51.406;-2.402;2023-02-28T01:47:22;7.72;;;2.65;;
48881;SDS011;57063;51.406;-2.402;2023-02-28T01:50:32;5.47;;;2.13;;
48881;SDS011;57063;51.406;-2.402;2023-02-28T01:53:06;10.93;;;2.55;;
48881;SDS011;57063;51.406;-2.402;2023-02-28T01:55:39;13.25;;;2.28;;
48881;SDS011;57063;51.406;-2.402;2023-02-28T01:58:22;6.43;;;2.05;;
48881;SDS011;57063;51.406;-2.402;2023-02-28T02:01:12;8.98;;;2.35;;
48881;SDS011;57063;51.406;-2.402;2023-02-28T02:03:51;10.80;;;2.50;;
48881;SDS011;57063;51.406;-2.402;2023-02-28T02:06:29;9.25;;;2.30;;
48881;SDS011;57063;51.406;-2.402;2023-02-28T02:09:02;4.88;;;2.17;;
48881;SDS011;57063;51.406;-2.402;2023-02-28T02:11:31;12.77;;;2.95;;
48881;SDS011;57063;51.406;-2.402;2023-02-28T02:26:15;11.80;;;3.17;;
48881;SDS011;57063;51.406;-2.402;2023-02-28T02:32:00;5.30;;;1.90;;
48881;SDS011;57063;51.406;-2.402;2023-02-28T02:34:41;11.40;;;2.47;;
48881;SDS011;57063;51.406;-2.402;2023-02-28T02:37:33;6.10;;;2.45;;
48881;SDS011;57063;51.406;-2.402;2023-02-28T02:40:28;7.63;;;2.33;;
48881;SDS011;57063;51.406;-2.402;2023-02-28T02:43:06;8.82;;;2.30;;
48881;SDS011;57063;51.406;-2.402;2023-02-28T02:48:14;6.80;;;2.80;;
48881;SDS011;57063;51.406;-2.402;2023-02-28T02:50:46;8.70;;;4.72;;
48881;SDS011;57063;51.406;-2.402;2023-02-28T02:53:17;7.57;;;2.55;;
48881;SDS011;57063;51.406;-2.402;2023-02-28T02:55:50;7.20;;;2.40;;
48881;SDS011;57063;51.406;-2.402;2023-02-28T02:58:24;9.32;;;2.30;;
48881;SDS011;57063;51.406;-2.402;2023-02-28T03:01:01;4.65;;;2.20;;
48881;SDS011;57063;51.406;-2.402;2023-02-28T03:03:31;6.55;;;2.67;;
48881;SDS011;57063;51.406;-2.402;2023-02-28T03:05:59;7.93;;;2.17;;
48881;SDS011;57063;51.406;-2.402;2023-02-28T03:08:29;9.10;;;2.25;;
48881;SDS011;57063;51.406;-2.402;2023-02-28T03:11:03;9.55;;;2.13;;
48881;SDS011;57063;51.406;-2.402;2023-02-28T03:16:34;7.22;;;2.22;;
48881;SDS011;57063;51.406;-2.402;2023-02-28T03:22:14;12.23;;;3.53;;
48881;SDS011;57063;51.406;-2.402;2023-02-28T03:25:01;5.15;;;1.95;;
48881;SDS011;57063;51.406;-2.402;2023-02-28T03:33:20;6.13;;;1.73;;
48881;SDS011;57063;51.406;-2.402;2023-02-28T03:35:58;12.70;;;1.88;;
48881;SDS011;57063;51.406;-2.402;2023-02-28T03:38:40;7.63;;;2.22;;
48881;SDS011;57063;51.406;-2.402;2023-02-28T03:41:32;4.15;;;1.80;;
48881;SDS011;57063;51.406;-2.402;2023-02-28T03:44:17;8.80;;;2.20;;
48881;SDS011;57063;51.406;-2.402;2023-02-28T03:47:02;5.72;;;2.42;;
48881;SDS011;57063;51.406;-2.402;2023-02-28T03:49:37;7.70;;;2.00;;
48881;SDS011;57063;51.406;-2.402;2023-02-28T03:52:10;12.98;;;4.10;;
48881;SDS011;57063;51.406;-2.402;2023-02-28T03:54:45;5.95;;;1.83;;
48881;SDS011;57063;51.406;-2.402;2023-02-28T04:00:17;11.77;;;4.13;;
48881;SDS011;57063;51.406;-2.402;2023-02-28T04:02:46;3.70;;;1.70;;
48881;SDS011;57063;51.406;-2.402;2023-02-28T04:05:18;3.00;;;1.40;;
48881;SDS011;57063;51.406;-2.402;2023-02-28T04:07:45;5.07;;;1.70;;
48881;SDS011;57063;51.406;-2.402;2023-02-28T04:10:13;4.35;;;1.98;;
48881;SDS011;57063;51.406;-2.402;2023-02-28T04:12:39;2.25;;;1.52;;
48881;SDS011;57063;51.406;-2.402;2023-02-28T04:15:08;9.23;;;2.00;;
48881;SDS011;57063;51.406;-2.402;2023-02-28T04:17:35;4.78;;;2.10;;
48881;SDS011;57063;51.406;-2.402;2023-02-28T04:20:01;7.82;;;2.05;;
48881;SDS011;57063;51.406;-2.402;2023-02-28T04:22:31;4.93;;;1.98;;
48881;SDS011;57063;51.406;-2.402;2023-02-28T04:25:00;7.18;;;1.98;;
48881;SDS011;57063;51.406;-2.402;2023-02-28T04:27:29;8.63;;;2.55;;
48881;SDS011;57063;51.406;-2.402;2023-02-28T04:29:55;7.43;;;1.88;;
48881;SDS011;57063;51.406;-2.402;2023-02-28T04:32:21;4.97;;;1.65;;
48881;SDS011;57063;51.406;-2.402;2023-02-28T04:34:49;7.13;;;2.00;;
48881;SDS011;57063;51.406;-2.402;2023-02-28T04:37:18;6.45;;;1.40;;
48881;SDS011;57063;51.406;-2.402;2023-02-28T04:39:46;4.82;;;1.70;;
48881;SDS011;57063;51.406;-2.402;2023-02-28T04:42:12;7.13;;;1.80;;
48881;SDS011;57063;51.406;-2.402;2023-02-28T04:44:38;5.30;;;1.63;;
48881;SDS011;57063;51.406;-2.402;2023-02-28T04:47:06;6.00;;;2.00;;
48881;SDS011;57063;51.406;-2.402;2023-02-28T04:49:35;6.28;;;1.90;;
48881;SDS011;57063;51.406;-2.402;2023-02-28T04:52:01;3.17;;;1.45;;
48881;SDS011;57063;51.406;-2.402;2023-02-28T04:54:29;9.10;;;1.58;;
48881;SDS011;57063;51.406;-2.402;2023-02-28T04:56:58;3.38;;;2.05;;
48881;SDS011;57063;51.406;-2.402;2023-02-28T04:59:27;8.18;;;1.70;;
48881;SDS011;57063;51.406;-2.402;2023-02-28T05:01:53;5.50;;;1.65;;
48881;SDS011;57063;51.406;-2.402;2023-02-28T05:04:18;2.25;;;1.40;;
48881;SDS011;57063;51.406;-2.402;2023-02-28T05:06:47;2.53;;;1.38;;
48881;SDS011;57063;51.406;-2.402;2023-02-28T05:09:16;8.07;;;2.10;;
48881;SDS011;57063;51.406;-2.402;2023-02-28T05:11:47;3.60;;;1.50;;
48881;SDS011;57063;51.406;-2.402;2023-02-28T05:14:13;6.20;;;1.70;;
48881;SDS011;57063;51.406;-2.402;2023-02-28T05:16:44;7.80;;;2.00;;
48881;SDS011;57063;51.406;-2.402;2023-02-28T05:21:42;7.30;;;1.30;;
48881;SDS011;57063;51.406;-2.402;2023-02-28T05:24:16;2.40;;;1.23;;
48881;SDS011;57063;51.406;-2.402;2023-02-28T05:26:48;4.32;;;1.65;;
48881;SDS011;57063;51.406;-2.402;2023-02-28T05:29:17;7.47;;;1.67;;
48881;SDS011;57063;51.406;-2.402;2023-02-28T05:31:44;4.40;;;1.60;;
48881;SDS011;57063;51.406;-2.402;2023-02-28T05:34:12;3.70;;;1.55;;
48881;SDS011;57063;51.406;-2.402;2023-02-28T05:36:40;3.65;;;1.42;;
48881;SDS011;57063;51.406;-2.402;2023-02-28T05:39:06;6.22;;;1.40;;
48881;SDS011;57063;51.406;-2.402;2023-02-28T05:41:37;4.18;;;1.50;;
48881;SDS011;57063;51.406;-2.402;2023-02-28T05:44:04;5.00;;;1.40;;
48881;SDS011;57063;51.406;-2.402;2023-02-28T05:46:30;3.40;;;1.48;;
48881;SDS011;57063;51.406;-2.402;2023-02-28T05:48:56;4.82;;;1.67;;
48881;SDS011;57063;51.406;-2.402;2023-02-28T05:51:24;2.58;;;1.67;;
48881;SDS011;57063;51.406;-2.402;2023-02-28T05:53:52;2.05;;;1.20;;
48881;SDS011;57063;51.406;-2.402;2023-02-28T05:56:18;2.42;;;1.30;;
48881;SDS011;57063;51.406;-2.402;2023-02-28T05:58:44;3.53;;;2.45;;
48881;SDS011;57063;51.406;-2.402;2023-02-28T06:04:06;3.30;;;1.40;;
48881;SDS011;57063;51.406;-2.402;2023-02-28T06:06:34;2.58;;;1.42;;
48881;SDS011;57063;51.406;-2.402;2023-02-28T06:09:07;3.75;;;1.60;;
48881;SDS011;57063;51.406;-2.402;2023-02-28T06:11:33;3.20;;;2.10;;
48881;SDS011;57063;51.406;-2.402;2023-02-28T06:14:05;5.32;;;2.13;;
48881;SDS011;57063;51.406;-2.402;2023-02-28T06:16:32;6.20;;;1.90;;
48881;SDS011;57063;51.406;-2.402;2023-02-28T06:19:00;5.95;;;2.92;;
48881;SDS011;57063;51.406;-2.402;2023-02-28T06:21:28;5.68;;;2.67;;
48881;SDS011;57063;51.406;-2.402;2023-02-28T06:23:57;4.22;;;1.95;;
48881;SDS011;57063;51.406;-2.402;2023-02-28T06:26:23;3.92;;;2.63;;
48881;SDS011;57063;51.406;-2.402;2023-02-28T06:28:49;6.80;;;2.42;;
48881;SDS011;57063;51.406;-2.402;2023-02-28T06:31:16;3.17;;;2.10;;
48881;SDS011;57063;51.406;-2.402;2023-02-28T06:33:43;4.32;;;2.13;;
48881;SDS011;57063;51.406;-2.402;2023-02-28T06:36:10;3.45;;;2.10;;
48881;SDS011;57063;51.406;-2.402;2023-02-28T06:38:39;5.03;;;2.30;;
48881;SDS011;57063;51.406;-2.402;2023-02-28T06:41:06;3.58;;;2.40;;
48881;SDS011;57063;51.406;-2.402;2023-02-28T06:43:37;6.03;;;2.92;;
48881;SDS011;57063;51.406;-2.402;2023-02-28T06:46:05;3.53;;;2.30;;
48881;SDS011;57063;51.406;-2.402;2023-02-28T06:48:33;5.28;;;2.00;;
48881;SDS011;57063;51.406;-2.402;2023-02-28T06:51:09;3.75;;;2.20;;
48881;SDS011;57063;51.406;-2.402;2023-02-28T06:53:47;4.03;;;1.92;;
48881;SDS011;57063;51.406;-2.402;2023-02-28T06:56:18;3.92;;;1.20;;
48881;SDS011;57063;51.406;-2.402;2023-02-28T06:58:49;2.92;;;1.67;;
48881;SDS011;57063;51.406;-2.402;2023-02-28T07:01:15;4.07;;;1.40;;
48881;SDS011;57063;51.406;-2.402;2023-02-28T07:03:42;1.38;;;1.10;;
48881;SDS011;57063;51.406;-2.402;2023-02-28T07:06:08;8.18;;;1.95;;
48881;SDS011;57063;51.406;-2.402;2023-02-28T07:08:34;2.15;;;1.23;;
48881;SDS011;57063;51.406;-2.402;2023-02-28T07:11:01;3.35;;;1.45;;
48881;SDS011;57063;51.406;-2.402;2023-02-28T07:13:29;3.83;;;2.00;;
48881;SDS011;57063;51.406;-2.402;2023-02-28T07:18:29;3.03;;;1.63;;
48881;SDS011;57063;51.406;-2.402;2023-02-28T07:21:01;1.70;;;1.50;;
48881;SDS011;57063;51.406;-2.402;2023-02-28T07:23:31;2.95;;;1.55;;
48881;SDS011;57063;51.406;-2.402;2023-02-28T07:25:57;2.08;;;1.27;;
48881;SDS011;57063;51.406;-2.402;2023-02-28T07:28:31;2.63;;;1.52;;
48881;SDS011;57063;51.406;-2.402;2023-02-28T07:31:03;2.88;;;1.50;;
48881;SDS011;57063;51.406;-2.402;2023-02-28T07:33:33;1.80;;;1.38;;
48881;SDS011;57063;51.406;-2.402;2023-02-28T07:38:33;2.20;;;1.27;;
48881;SDS011;57063;51.406;-2.402;2023-02-28T07:41:02;3.40;;;1.80;;
48881;SDS011;57063;51.406;-2.402;2023-02-28T07:43:33;2.50;;;1.60;;
48881;SDS011;57063;51.406;-2.402;2023-02-28T07:46:09;2.95;;;1.70;;
48881;SDS011;57063;51.406;-2.402;2023-02-28T07:48:37;2.92;;;1.95;;
48881;SDS011;57063;51.406;-2.402;2023-02-28T07:51:03;3.20;;;2.47;;
48881;SDS011;57063;51.406;-2.402;2023-02-28T07:53:29;2.78;;;2.05;;
48881;SDS011;57063;51.406;-2.402;2023-02-28T07:55:55;10.48;;;3.60;;
48881;SDS011;57063;51.406;-2.402;2023-02-28T07:58:25;5.95;;;4.10;;
48881;SDS011;57063;51.406;-2.402;2023-02-28T08:00:52;5.25;;;4.00;;
48881;SDS011;57063;51.406;-2.402;2023-02-28T08:03:20;5.45;;;4.20;;
48881;SDS011;57063;51.406;-2.402;2023-02-28T08:05:47;5.43;;;3.90;;
48881;SDS011;57063;51.406;-2.402;2023-02-28T08:08:19;6.38;;;4.13;;
48881;SDS011;57063;51.406;-2.402;2023-02-28T08:10:51;5.50;;;4.15;;
48881;SDS011;57063;51.406;-2.402;2023-02-28T08:13:25;6.97;;;4.28;;
48881;SDS011;57063;51.406;-2.402;2023-02-28T08:15:54;7.68;;;4.53;;
48881;SDS011;57063;51.406;-2.402;2023-02-28T08:18:26;10.93;;;4.90;;
48881;SDS011;57063;51.406;-2.402;2023-02-28T08:20:54;4.93;;;4.30;;
48881;SDS011;57063;51.406;-2.402;2023-02-28T08:23:25;4.60;;;4.00;;
48881;SDS011;57063;51.406;-2.402;2023-02-28T08:26:02;8.48;;;4.03;;
48881;SDS011;57063;51.406;-2.402;2023-02-28T08:28:33;6.85;;;4.20;;
48881;SDS011;57063;51.406;-2.402;2023-02-28T08:31:08;5.43;;;4.57;;
48881;SDS011;57063;51.406;-2.402;2023-02-28T08:33:36;5.05;;;4.10;;
48881;SDS011;57063;51.406;-2.402;2023-02-28T08:36:04;6.35;;;3.92;;
48881;SDS011;57063;51.406;-2.402;2023-02-28T08:38:37;5.18;;;4.30;;
48881;SDS011;57063;51.406;-2.402;2023-02-28T08:41:06;5.28;;;4.38;;
48881;SDS011;57063;51.406;-2.402;2023-02-28T08:53:59;5.97;;;3.70;;
48881;SDS011;57063;51.406;-2.402;2023-02-28T10:51:19;4.68;;;3.47;;
48881;SDS011;57063;51.406;-2.402;2023-02-28T10:53:48;5.72;;;3.28;;
48881;SDS011;57063;51.406;-2.402;2023-02-28T11:17:38;5.63;;;5.03;;
48881;SDS011;57063;51.406;-2.402;2023-02-28T11:20:18;6.53;;;4.97;;
48881;SDS011;57063;51.406;-2.402;2023-02-28T11:22:51;6.90;;;5.10;;
48881;SDS011;57063;51.406;-2.402;2023-02-28T14:27:20;6.70;;;5.50;;
48881;SDS011;57063;51.406;-2.402;2023-02-28T14:33:01;4.53;;;3.95;;
48881;SDS011;57063;51.406;-2.402;2023-02-28T14:35:59;5.65;;;4.40;;
48881;SDS011;57063;51.406;-2.402;2023-02-28T14:38:27;5.75;;;4.22;;
48881;SDS011;57063;51.406;-2.402;2023-02-28T14:41:00;5.38;;;4.50;;
48881;SDS011;57063;51.406;-2.402;2023-02-28T14:43:32;4.63;;;3.65;;
48881;SDS011;57063;51.406;-2.402;2023-02-28T14:46:01;5.43;;;4.35;;
48881;SDS011;57063;51.406;-2.402;2023-02-28T14:48:29;6.13;;;4.00;;
48881;SDS011;57063;51.406;-2.402;2023-02-28T14:50:59;6.60;;;3.17;;
48881;SDS011;57063;51.406;-2.402;2023-02-28T14:53:27;4.75;;;3.20;;
48881;SDS011;57063;51.406;-2.402;2023-02-28T14:55:55;3.28;;;2.80;;
48881;SDS011;57063;51.406;-2.402;2023-02-28T14:58:22;6.05;;;3.53;;
48881;SDS011;57063;51.406;-2.402;2023-02-28T15:03:46;4.07;;;2.92;;
48881;SDS011;57063;51.406;-2.402;2023-02-28T15:06:13;3.88;;;2.67;;
48881;SDS011;57063;51.406;-2.402;2023-02-28T15:08:42;4.30;;;2.88;;
48881;SDS011;57063;51.406;-2.402;2023-02-28T15:11:12;3.67;;;3.00;;
48881;SDS011;57063;51.406;-2.402;2023-02-28T15:13:48;4.57;;;3.30;;
48881;SDS011;57063;51.406;-2.402;2023-02-28T15:19:05;3.35;;;2.63;;
48881;SDS011;57063;51.406;-2.402;2023-02-28T15:22:27;2.58;;;2.20;;
48881;SDS011;57063;51.406;-2.402;2023-02-28T15:28:03;2.47;;;2.00;;
48881;SDS011;57063;51.406;-2.402;2023-02-28T15:30:30;4.30;;;2.33;;
48881;SDS011;57063;51.406;-2.402;2023-02-28T15:33:05;3.40;;;2.38;;
48881;SDS011;57063;51.406;-2.402;2023-02-28T15:54:40;5.57;;;2.75;;
48881;SDS011;57063;51.406;-2.402;2023-02-28T15:57:12;3.63;;;2.80;;
48881;SDS011;57063;51.406;-2.402;2023-02-28T16:51:26;3.05;;;2.75;;
48881;SDS011;57063;51.406;-2.402;2023-02-28T16:53:57;6.50;;;3.63;;
48881;SDS011;57063;51.406;-2.402;2023-02-28T16:56:31;3.22;;;2.80;;
48881;SDS011;57063;51.406;-2.402;2023-02-28T16:59:05;3.92;;;3.53;;
48881;SDS011;57063;51.406;-2.402;2023-02-28T17:46:19;3.03;;;2.20;;
48881;SDS011;57063;51.406;-2.402;2023-02-28T17:58:13;4.03;;;3.03;;
48881;SDS011;57063;51.406;-2.402;2023-02-28T18:00:45;4.03;;;2.67;;
48881;SDS011;57063;51.406;-2.402;2023-02-28T18:03:12;4.82;;;3.20;;
48881;SDS011;57063;51.406;-2.402;2023-02-28T18:16:53;5.30;;;2.45;;
48881;SDS011;57063;51.406;-2.402;2023-02-28T18:19:30;3.90;;;2.92;;
48881;SDS011;57063;51.406;-2.402;2023-02-28T18:56:09;4.10;;;3.20;;
48881;SDS011;57063;51.406;-2.402;2023-02-28T19:04:29;5.60;;;4.05;;
48881;SDS011;57063;51.406;-2.402;2023-02-28T19:06:57;7.03;;;4.97;;
48881;SDS011;57063;51.406;-2.402;2023-02-28T19:09:23;6.45;;;4.60;;
48881;SDS011;57063;51.406;-2.402;2023-02-28T19:14:47;5.82;;;4.65;;
48881;SDS011;57063;51.406;-2.402;2023-02-28T19:17:28;5.85;;;4.05;;
48881;SDS011;57063;51.406;-2.402;2023-02-28T19:20:06;6.90;;;4.80;;
48881;SDS011;57063;51.406;-2.402;2023-02-28T19:25:39;7.10;;;4.00;;
48881;SDS011;57063;51.406;-2.402;2023-02-28T19:28:07;6.38;;;3.88;;
48881;SDS011;57063;51.406;-2.402;2023-02-28T19:34:13;4.78;;;3.45;;
48881;SDS011;57063;51.406;-2.402;2023-02-28T19:36:41;5.13;;;3.67;;
48881;SDS011;57063;51.406;-2.402;2023-02-28T19:48:54;5.72;;;3.78;;
48881;SDS011;57063;51.406;-2.402;2023-02-28T19:51:20;4.65;;;3.92;;
48881;SDS011;57063;51.406;-2.402;2023-02-28T19:53:48;4.57;;;3.90;;
48881;SDS011;57063;51.406;-2.402;2023-02-28T19:56:44;5.10;;;3.67;;
48881;SDS011;57063;51.406;-2.402;2023-02-28T19:59:11;4.72;;;3.50;;
48881;SDS011;57063;51.406;-2.402;2023-02-28T20:01:37;5.30;;;3.85;;
48881;SDS011;57063;51.406;-2.402;2023-02-28T20:27:42;6.15;;;4.70;;
48881;SDS011;57063;51.406;-2.402;2023-02-28T20:30:39;6.20;;;4.20;;
48881;SDS011;57063;51.406;-2.402;2023-02-28T20:33:53;6.60;;;5.30;;
48881;SDS011;57063;51.406;-2.402;2023-02-28T20:36:58;5.90;;;5.00;;
48881;SDS011;57063;51.406;-2.402;2023-02-28T20:47:18;5.97;;;4.60;;
48881;SDS011;57063;51.406;-2.402;2023-02-28T20:54:03;6.07;;;4.93;;
48881;SDS011;57063;51.406;-2.402;2023-02-28T20:57:03;8.38;;;5.63;;
48881;SDS011;57063;51.406;-2.402;2023-02-28T21:00:02;7.72;;;5.28;;
48881;SDS011;57063;51.406;-2.402;2023-02-28T21:06:37;6.85;;;4.97;;
